sensor_id;sensor_type;location;lat;lon;timestamp;P1;durP1;ratioP1;P2;durP2;ratioP2
7957;SDS011;4024;52.172;5.378;2024-01-15T00:01:54;6.27;;;1.93;;
7957;SDS011;4024;52.172;5.378;2024-01-15T00:04:20;7.60;;;2.63;;
7957;SDS011;4024;52.172;5.378;2024-01-15T00:06:46;10.73;;;2.50;;
7957;SDS011;4024;52.172;5.378;2024-01-15T00:09:11;6.93;;;2.20;;
7957;SDS011;4024;52.172;5.378;2024-01-15T00:11:37;9.87;;;3.03;;
7957;SDS011;4024;52.172;5.378;2024-01-15T00:14:02;12.17;;;2.97;;
7957;SDS011;4024;52.172;5.378;2024-01-15T00:16:28;11.10;;;2.93;;
7957;SDS011;4024;52.172;5.378;2024-01-15T00:18:54;12.03;;;2.63;;
7957;SDS011;4024;52.172;5.378;2024-01-15T00:21:19;9.20;;;2.37;;
7957;SDS011;4024;52.172;5.378;2024-01-15T00:23:45;5.40;;;2.40;;
7957;SDS011;4024;52.172;5.378;2024-01-15T00:26:11;7.63;;;2.97;;
7957;SDS011;4024;52.172;5.378;2024-01-15T00:28:37;7.57;;;2.87;;
7957;SDS011;4024;52.172;5.378;2024-01-15T00:31:03;11.17;;;3.13;;
7957;SDS011;4024;52.172;5.378;2024-01-15T00:33:29;8.53;;;2.70;;
7957;SDS011;4024;52.172;5.378;2024-01-15T00:35:55;10.33;;;2.57;;
7957;SDS011;4024;52.172;5.378;2024-01-15T00:38:21;10.40;;;2.70;;
7957;SDS011;4024;52.172;5.378;2024-01-15T00:40:46;11.63;;;2.93;;
7957;SDS011;4024;52.172;5.378;2024-01-15T00:43:12;6.37;;;2.30;;
7957;SDS011;4024;52.172;5.378;2024-01-15T00:45:38;5.73;;;3.13;;
7957;SDS011;4024;52.172;5.378;2024-01-15T00:48:04;8.03;;;2.20;;
7957;SDS011;4024;52.172;5.378;2024-01-15T00:50:29;10.77;;;3.27;;
7957;SDS011;4024;52.172;5.378;2024-01-15T00:52:55;6.83;;;2.77;;
7957;SDS011;4024;52.172;5.378;2024-01-15T00:55:21;9.30;;;2.60;;
7957;SDS011;4024;52.172;5.378;2024-01-15T00:57:46;9.37;;;2.43;;
7957;SDS011;4024;52.172;5.378;2024-01-15T01:00:12;13.07;;;3.03;;
7957;SDS011;4024;52.172;5.378;2024-01-15T01:02:38;14.10;;;3.00;;
7957;SDS011;4024;52.172;5.378;2024-01-15T01:05:04;10.33;;;2.57;;
7957;SDS011;4024;52.172;5.378;2024-01-15T01:07:29;8.00;;;3.03;;
7957;SDS011;4024;52.172;5.378;2024-01-15T01:09:55;6.93;;;2.00;;
7957;SDS011;4024;52.172;5.378;2024-01-15T01:12:21;7.57;;;2.70;;
7957;SDS011;4024;52.172;5.378;2024-01-15T01:14:46;8.23;;;2.67;;
7957;SDS011;4024;52.172;5.378;2024-01-15T01:17:12;10.63;;;2.83;;
7957;SDS011;4024;52.172;5.378;2024-01-15T01:19:37;14.03;;;2.73;;
7957;SDS011;4024;52.172;5.378;2024-01-15T01:22:03;8.03;;;2.50;;
7957;SDS011;4024;52.172;5.378;2024-01-15T01:24:29;8.43;;;3.00;;
7957;SDS011;4024;52.172;5.378;2024-01-15T01:26:54;10.80;;;2.70;;
7957;SDS011;4024;52.172;5.378;2024-01-15T01:29:20;10.97;;;3.30;;
7957;SDS011;4024;52.172;5.378;2024-01-15T01:31:46;11.43;;;3.67;;
7957;SDS011;4024;52.172;5.378;2024-01-15T01:34:15;10.17;;;3.20;;
7957;SDS011;4024;52.172;5.378;2024-01-15T01:36:44;7.20;;;3.20;;
7957;SDS011;4024;52.172;5.378;2024-01-15T01:39:10;10.13;;;2.43;;
7957;SDS011;4024;52.172;5.378;2024-01-15T01:41:37;12.40;;;2.93;;
7957;SDS011;4024;52.172;5.378;2024-01-15T01:44:03;10.07;;;3.20;;
7957;SDS011;4024;52.172;5.378;2024-01-15T01:46:29;10.37;;;2.50;;
7957;SDS011;4024;52.172;5.378;2024-01-15T01:48:55;9.17;;;2.60;;
7957;SDS011;4024;52.172;5.378;2024-01-15T01:51:24;10.90;;;3.37;;
7957;SDS011;4024;52.172;5.378;2024-01-15T01:53:50;8.47;;;2.27;;
7957;SDS011;4024;52.172;5.378;2024-01-15T01:56:16;13.47;;;3.40;;
7957;SDS011;4024;52.172;5.378;2024-01-15T01:58:43;8.27;;;2.87;;
7957;SDS011;4024;52.172;5.378;2024-01-15T02:01:10;12.07;;;2.80;;
7957;SDS011;4024;52.172;5.378;2024-01-15T02:03:38;8.77;;;2.80;;
7957;SDS011;4024;52.172;5.378;2024-01-15T02:06:05;10.67;;;2.60;;
7957;SDS011;4024;52.172;5.378;2024-01-15T02:08:31;10.90;;;3.10;;
7957;SDS011;4024;52.172;5.378;2024-01-15T02:10:56;13.17;;;2.73;;
7957;SDS011;4024;52.172;5.378;2024-01-15T02:13:22;5.60;;;2.33;;
7957;SDS011;4024;52.172;5.378;2024-01-15T02:15:47;5.17;;;2.73;;
7957;SDS011;4024;52.172;5.378;2024-01-15T02:18:13;8.80;;;2.10;;
7957;SDS011;4024;52.172;5.378;2024-01-15T02:20:38;6.73;;;2.00;;
7957;SDS011;4024;52.172;5.378;2024-01-15T02:23:11;6.90;;;2.43;;
7957;SDS011;4024;52.172;5.378;2024-01-15T02:25:39;5.43;;;1.83;;
7957;SDS011;4024;52.172;5.378;2024-01-15T02:28:06;11.03;;;2.70;;
7957;SDS011;4024;52.172;5.378;2024-01-15T02:30:35;12.80;;;2.47;;
7957;SDS011;4024;52.172;5.378;2024-01-15T02:33:03;7.07;;;2.63;;
7957;SDS011;4024;52.172;5.378;2024-01-15T02:35:29;7.33;;;2.10;;
7957;SDS011;4024;52.172;5.378;2024-01-15T02:37:55;6.70;;;2.23;;
7957;SDS011;4024;52.172;5.378;2024-01-15T02:40:20;5.33;;;2.50;;
7957;SDS011;4024;52.172;5.378;2024-01-15T02:42:46;5.07;;;2.20;;
7957;SDS011;4024;52.172;5.378;2024-01-15T02:45:11;4.33;;;1.90;;
7957;SDS011;4024;52.172;5.378;2024-01-15T02:47:37;3.07;;;1.40;;
7957;SDS011;4024;52.172;5.378;2024-01-15T02:50:03;4.57;;;1.73;;
7957;SDS011;4024;52.172;5.378;2024-01-15T02:52:29;4.53;;;1.50;;
7957;SDS011;4024;52.172;5.378;2024-01-15T02:54:54;3.30;;;1.57;;
7957;SDS011;4024;52.172;5.378;2024-01-15T02:57:20;5.10;;;2.07;;
7957;SDS011;4024;52.172;5.378;2024-01-15T02:59:45;5.53;;;1.70;;
7957;SDS011;4024;52.172;5.378;2024-01-15T03:02:11;4.07;;;1.97;;
7957;SDS011;4024;52.172;5.378;2024-01-15T03:04:36;4.23;;;2.03;;
7957;SDS011;4024;52.172;5.378;2024-01-15T03:07:02;3.77;;;1.77;;
7957;SDS011;4024;52.172;5.378;2024-01-15T03:09:28;5.77;;;1.70;;
7957;SDS011;4024;52.172;5.378;2024-01-15T03:11:53;5.77;;;1.70;;
7957;SDS011;4024;52.172;5.378;2024-01-15T03:14:19;4.40;;;1.97;;
7957;SDS011;4024;52.172;5.378;2024-01-15T03:16:45;4.90;;;1.70;;
7957;SDS011;4024;52.172;5.378;2024-01-15T03:19:11;8.47;;;1.80;;
7957;SDS011;4024;52.172;5.378;2024-01-15T03:21:36;6.63;;;2.00;;
7957;SDS011;4024;52.172;5.378;2024-01-15T03:24:02;4.43;;;1.80;;
7957;SDS011;4024;52.172;5.378;2024-01-15T03:26:28;4.37;;;1.60;;
7957;SDS011;4024;52.172;5.378;2024-01-15T03:28:53;5.60;;;2.10;;
7957;SDS011;4024;52.172;5.378;2024-01-15T03:31:19;4.40;;;2.00;;
7957;SDS011;4024;52.172;5.378;2024-01-15T03:33:45;10.30;;;2.37;;
7957;SDS011;4024;52.172;5.378;2024-01-15T03:36:10;10.63;;;2.20;;
7957;SDS011;4024;52.172;5.378;2024-01-15T03:38:38;6.37;;;1.80;;
7957;SDS011;4024;52.172;5.378;2024-01-15T03:41:07;8.23;;;1.80;;
7957;SDS011;4024;52.172;5.378;2024-01-15T03:43:33;5.67;;;1.90;;
7957;SDS011;4024;52.172;5.378;2024-01-15T03:45:59;7.23;;;1.83;;
7957;SDS011;4024;52.172;5.378;2024-01-15T03:48:24;6.53;;;1.80;;
7957;SDS011;4024;52.172;5.378;2024-01-15T03:50:50;4.30;;;1.97;;
7957;SDS011;4024;52.172;5.378;2024-01-15T03:53:15;5.90;;;2.00;;
7957;SDS011;4024;52.172;5.378;2024-01-15T03:55:41;5.70;;;1.90;;
7957;SDS011;4024;52.172;5.378;2024-01-15T03:58:07;8.57;;;2.27;;
7957;SDS011;4024;52.172;5.378;2024-01-15T04:00:33;4.13;;;2.10;;
7957;SDS011;4024;52.172;5.378;2024-01-15T04:02:59;8.80;;;2.23;;
7957;SDS011;4024;52.172;5.378;2024-01-15T04:05:25;2.83;;;1.90;;
7957;SDS011;4024;52.172;5.378;2024-01-15T04:07:51;5.33;;;2.30;;
7957;SDS011;4024;52.172;5.378;2024-01-15T04:10:16;7.30;;;2.50;;
7957;SDS011;4024;52.172;5.378;2024-01-15T04:12:42;5.83;;;1.80;;
7957;SDS011;4024;52.172;5.378;2024-01-15T04:15:08;10.47;;;2.40;;
7957;SDS011;4024;52.172;5.378;2024-01-15T04:17:33;8.33;;;2.00;;
7957;SDS011;4024;52.172;5.378;2024-01-15T04:19:59;7.30;;;1.90;;
7957;SDS011;4024;52.172;5.378;2024-01-15T04:22:25;6.87;;;2.23;;
7957;SDS011;4024;52.172;5.378;2024-01-15T04:24:52;9.13;;;2.17;;
7957;SDS011;4024;52.172;5.378;2024-01-15T04:27:17;7.87;;;2.20;;
7957;SDS011;4024;52.172;5.378;2024-01-15T04:29:43;5.07;;;1.90;;
7957;SDS011;4024;52.172;5.378;2024-01-15T04:32:09;6.37;;;1.90;;
7957;SDS011;4024;52.172;5.378;2024-01-15T04:34:35;8.20;;;2.03;;
7957;SDS011;4024;52.172;5.378;2024-01-15T04:37:00;9.13;;;2.20;;
7957;SDS011;4024;52.172;5.378;2024-01-15T04:39:26;6.13;;;1.77;;
7957;SDS011;4024;52.172;5.378;2024-01-15T04:41:52;10.47;;;2.00;;
7957;SDS011;4024;52.172;5.378;2024-01-15T04:44:18;8.50;;;2.43;;
7957;SDS011;4024;52.172;5.378;2024-01-15T04:46:43;7.87;;;2.13;;
7957;SDS011;4024;52.172;5.378;2024-01-15T04:49:09;6.67;;;2.13;;
7957;SDS011;4024;52.172;5.378;2024-01-15T04:51:35;6.20;;;1.80;;
7957;SDS011;4024;52.172;5.378;2024-01-15T04:54:01;7.77;;;1.97;;
7957;SDS011;4024;52.172;5.378;2024-01-15T04:56:27;8.23;;;1.90;;
7957;SDS011;4024;52.172;5.378;2024-01-15T04:58:52;6.77;;;1.90;;
7957;SDS011;4024;52.172;5.378;2024-01-15T05:01:18;6.63;;;1.90;;
7957;SDS011;4024;52.172;5.378;2024-01-15T05:03:43;5.97;;;1.87;;
7957;SDS011;4024;52.172;5.378;2024-01-15T05:06:09;10.03;;;2.57;;
7957;SDS011;4024;52.172;5.378;2024-01-15T05:08:35;9.97;;;2.10;;
7957;SDS011;4024;52.172;5.378;2024-01-15T05:11:00;7.47;;;1.87;;
7957;SDS011;4024;52.172;5.378;2024-01-15T05:13:26;7.27;;;1.90;;
7957;SDS011;4024;52.172;5.378;2024-01-15T05:15:52;10.07;;;2.00;;
7957;SDS011;4024;52.172;5.378;2024-01-15T05:18:17;6.13;;;1.97;;
7957;SDS011;4024;52.172;5.378;2024-01-15T05:20:43;8.47;;;2.13;;
7957;SDS011;4024;52.172;5.378;2024-01-15T05:23:09;3.73;;;1.90;;
7957;SDS011;4024;52.172;5.378;2024-01-15T05:25:34;10.13;;;2.47;;
7957;SDS011;4024;52.172;5.378;2024-01-15T05:28:00;4.87;;;2.23;;
7957;SDS011;4024;52.172;5.378;2024-01-15T05:30:26;3.40;;;1.80;;
7957;SDS011;4024;52.172;5.378;2024-01-15T05:32:52;6.77;;;1.93;;
7957;SDS011;4024;52.172;5.378;2024-01-15T05:35:17;8.97;;;1.97;;
7957;SDS011;4024;52.172;5.378;2024-01-15T05:37:43;7.47;;;2.17;;
7957;SDS011;4024;52.172;5.378;2024-01-15T05:40:13;6.37;;;2.10;;
7957;SDS011;4024;52.172;5.378;2024-01-15T05:42:39;7.57;;;1.90;;
7957;SDS011;4024;52.172;5.378;2024-01-15T05:45:05;10.10;;;2.13;;
7957;SDS011;4024;52.172;5.378;2024-01-15T05:47:31;7.97;;;2.30;;
7957;SDS011;4024;52.172;5.378;2024-01-15T05:49:57;8.60;;;2.17;;
7957;SDS011;4024;52.172;5.378;2024-01-15T05:52:23;8.97;;;2.47;;
7957;SDS011;4024;52.172;5.378;2024-01-15T05:54:49;7.80;;;2.20;;
7957;SDS011;4024;52.172;5.378;2024-01-15T05:57:15;8.20;;;2.37;;
7957;SDS011;4024;52.172;5.378;2024-01-15T05:59:41;8.27;;;2.50;;
7957;SDS011;4024;52.172;5.378;2024-01-15T06:02:07;6.40;;;2.40;;
7957;SDS011;4024;52.172;5.378;2024-01-15T06:04:33;7.87;;;2.73;;
7957;SDS011;4024;52.172;5.378;2024-01-15T06:06:58;8.23;;;2.43;;
7957;SDS011;4024;52.172;5.378;2024-01-15T06:09:24;6.83;;;2.00;;
7957;SDS011;4024;52.172;5.378;2024-01-15T06:11:49;8.63;;;2.20;;
7957;SDS011;4024;52.172;5.378;2024-01-15T06:14:15;3.77;;;1.90;;
7957;SDS011;4024;52.172;5.378;2024-01-15T06:16:40;8.47;;;2.53;;
7957;SDS011;4024;52.172;5.378;2024-01-15T06:19:06;8.07;;;2.73;;
7957;SDS011;4024;52.172;5.378;2024-01-15T06:21:31;8.13;;;2.60;;
7957;SDS011;4024;52.172;5.378;2024-01-15T06:23:57;6.20;;;2.40;;
7957;SDS011;4024;52.172;5.378;2024-01-15T06:26:23;7.00;;;2.83;;
7957;SDS011;4024;52.172;5.378;2024-01-15T06:28:48;7.23;;;2.33;;
7957;SDS011;4024;52.172;5.378;2024-01-15T06:31:14;6.10;;;2.10;;
7957;SDS011;4024;52.172;5.378;2024-01-15T06:33:39;5.17;;;2.23;;
7957;SDS011;4024;52.172;5.378;2024-01-15T06:36:05;7.27;;;2.40;;
7957;SDS011;4024;52.172;5.378;2024-01-15T06:38:31;7.10;;;2.60;;
7957;SDS011;4024;52.172;5.378;2024-01-15T06:40:57;6.33;;;2.70;;
7957;SDS011;4024;52.172;5.378;2024-01-15T06:43:22;3.60;;;2.17;;
7957;SDS011;4024;52.172;5.378;2024-01-15T06:45:48;9.30;;;2.50;;
7957;SDS011;4024;52.172;5.378;2024-01-15T06:48:14;5.97;;;2.37;;
7957;SDS011;4024;52.172;5.378;2024-01-15T06:50:41;4.67;;;2.70;;
7957;SDS011;4024;52.172;5.378;2024-01-15T06:53:07;4.97;;;2.83;;
7957;SDS011;4024;52.172;5.378;2024-01-15T06:55:33;4.37;;;2.20;;
7957;SDS011;4024;52.172;5.378;2024-01-15T06:57:58;5.27;;;2.60;;
7957;SDS011;4024;52.172;5.378;2024-01-15T07:00:24;5.53;;;2.77;;
7957;SDS011;4024;52.172;5.378;2024-01-15T07:02:50;5.63;;;2.80;;
7957;SDS011;4024;52.172;5.378;2024-01-15T07:05:16;5.77;;;2.20;;
7957;SDS011;4024;52.172;5.378;2024-01-15T07:07:42;4.80;;;2.47;;
7957;SDS011;4024;52.172;5.378;2024-01-15T07:10:08;4.70;;;2.40;;
7957;SDS011;4024;52.172;5.378;2024-01-15T07:12:34;6.70;;;2.43;;
7957;SDS011;4024;52.172;5.378;2024-01-15T07:14:59;5.47;;;2.83;;
7957;SDS011;4024;52.172;5.378;2024-01-15T07:17:25;6.93;;;2.70;;
7957;SDS011;4024;52.172;5.378;2024-01-15T07:19:50;5.90;;;2.83;;
7957;SDS011;4024;52.172;5.378;2024-01-15T07:22:16;8.20;;;2.60;;
7957;SDS011;4024;52.172;5.378;2024-01-15T07:24:43;5.43;;;2.77;;
7957;SDS011;4024;52.172;5.378;2024-01-15T07:27:09;4.43;;;2.53;;
7957;SDS011;4024;52.172;5.378;2024-01-15T07:29:35;5.50;;;2.37;;
7957;SDS011;4024;52.172;5.378;2024-01-15T07:32:04;6.07;;;2.30;;
7957;SDS011;4024;52.172;5.378;2024-01-15T07:34:29;5.17;;;2.50;;
7957;SDS011;4024;52.172;5.378;2024-01-15T07:36:55;6.00;;;2.43;;
7957;SDS011;4024;52.172;5.378;2024-01-15T07:39:22;4.70;;;3.00;;
7957;SDS011;4024;52.172;5.378;2024-01-15T07:41:49;5.43;;;2.53;;
7957;SDS011;4024;52.172;5.378;2024-01-15T07:44:15;6.07;;;2.37;;
7957;SDS011;4024;52.172;5.378;2024-01-15T07:46:43;5.03;;;2.77;;
7957;SDS011;4024;52.172;5.378;2024-01-15T07:49:10;6.93;;;3.23;;
7957;SDS011;4024;52.172;5.378;2024-01-15T07:51:36;3.17;;;2.60;;
7957;SDS011;4024;52.172;5.378;2024-01-15T07:54:01;6.67;;;3.13;;
7957;SDS011;4024;52.172;5.378;2024-01-15T07:56:27;5.30;;;2.87;;
7957;SDS011;4024;52.172;5.378;2024-01-15T07:58:53;4.27;;;2.93;;
7957;SDS011;4024;52.172;5.378;2024-01-15T08:01:18;5.27;;;2.87;;
7957;SDS011;4024;52.172;5.378;2024-01-15T08:03:44;8.17;;;3.33;;
7957;SDS011;4024;52.172;5.378;2024-01-15T08:06:10;11.57;;;3.17;;
7957;SDS011;4024;52.172;5.378;2024-01-15T08:08:36;5.80;;;2.87;;
7957;SDS011;4024;52.172;5.378;2024-01-15T08:11:02;8.23;;;3.70;;
7957;SDS011;4024;52.172;5.378;2024-01-15T08:13:27;8.57;;;3.47;;
7957;SDS011;4024;52.172;5.378;2024-01-15T08:15:53;6.43;;;2.93;;
7957;SDS011;4024;52.172;5.378;2024-01-15T08:18:18;6.30;;;3.47;;
7957;SDS011;4024;52.172;5.378;2024-01-15T08:20:46;6.93;;;3.73;;
7957;SDS011;4024;52.172;5.378;2024-01-15T08:23:12;7.00;;;3.60;;
7957;SDS011;4024;52.172;5.378;2024-01-15T08:25:37;6.80;;;3.43;;
7957;SDS011;4024;52.172;5.378;2024-01-15T08:28:03;4.97;;;3.80;;
7957;SDS011;4024;52.172;5.378;2024-01-15T08:30:29;5.20;;;3.30;;
7957;SDS011;4024;52.172;5.378;2024-01-15T08:32:55;8.13;;;3.47;;
7957;SDS011;4024;52.172;5.378;2024-01-15T08:35:20;6.93;;;3.37;;
7957;SDS011;4024;52.172;5.378;2024-01-15T08:37:48;6.67;;;2.97;;
7957;SDS011;4024;52.172;5.378;2024-01-15T08:40:14;6.73;;;3.37;;
7957;SDS011;4024;52.172;5.378;2024-01-15T08:42:41;10.13;;;3.60;;
7957;SDS011;4024;52.172;5.378;2024-01-15T08:45:06;5.30;;;3.10;;
7957;SDS011;4024;52.172;5.378;2024-01-15T08:47:32;7.13;;;3.17;;
7957;SDS011;4024;52.172;5.378;2024-01-15T08:49:58;6.93;;;2.87;;
7957;SDS011;4024;52.172;5.378;2024-01-15T08:52:24;4.67;;;2.47;;
7957;SDS011;4024;52.172;5.378;2024-01-15T08:54:49;7.00;;;2.80;;
7957;SDS011;4024;52.172;5.378;2024-01-15T08:57:15;5.27;;;2.63;;
7957;SDS011;4024;52.172;5.378;2024-01-15T08:59:41;10.93;;;3.13;;
7957;SDS011;4024;52.172;5.378;2024-01-15T09:02:07;6.67;;;2.80;;
7957;SDS011;4024;52.172;5.378;2024-01-15T09:04:32;6.33;;;3.07;;
7957;SDS011;4024;52.172;5.378;2024-01-15T09:06:58;7.37;;;3.03;;
7957;SDS011;4024;52.172;5.378;2024-01-15T09:09:24;11.73;;;2.70;;
7957;SDS011;4024;52.172;5.378;2024-01-15T09:11:50;7.90;;;2.83;;
7957;SDS011;4024;52.172;5.378;2024-01-15T09:14:16;5.83;;;2.73;;
7957;SDS011;4024;52.172;5.378;2024-01-15T09:16:41;7.83;;;2.60;;
7957;SDS011;4024;52.172;5.378;2024-01-15T09:19:07;5.60;;;2.30;;
7957;SDS011;4024;52.172;5.378;2024-01-15T09:21:32;7.07;;;2.23;;
7957;SDS011;4024;52.172;5.378;2024-01-15T09:23:58;7.87;;;2.17;;
7957;SDS011;4024;52.172;5.378;2024-01-15T09:26:23;5.20;;;2.10;;
7957;SDS011;4024;52.172;5.378;2024-01-15T09:28:49;10.30;;;2.90;;
7957;SDS011;4024;52.172;5.378;2024-01-15T09:31:15;8.83;;;2.37;;
7957;SDS011;4024;52.172;5.378;2024-01-15T09:33:42;6.83;;;3.00;;
7957;SDS011;4024;52.172;5.378;2024-01-15T09:36:09;6.83;;;3.43;;
7957;SDS011;4024;52.172;5.378;2024-01-15T09:38:34;5.97;;;3.33;;
7957;SDS011;4024;52.172;5.378;2024-01-15T09:41:00;5.87;;;2.50;;
7957;SDS011;4024;52.172;5.378;2024-01-15T09:43:26;7.97;;;2.80;;
7957;SDS011;4024;52.172;5.378;2024-01-15T09:45:52;9.67;;;3.63;;
7957;SDS011;4024;52.172;5.378;2024-01-15T09:48:18;5.80;;;2.53;;
7957;SDS011;4024;52.172;5.378;2024-01-15T09:50:44;7.83;;;2.47;;
7957;SDS011;4024;52.172;5.378;2024-01-15T09:53:11;6.60;;;2.53;;
7957;SDS011;4024;52.172;5.378;2024-01-15T09:55:41;10.10;;;2.63;;
7957;SDS011;4024;52.172;5.378;2024-01-15T09:58:06;9.07;;;2.33;;
7957;SDS011;4024;52.172;5.378;2024-01-15T10:00:33;7.10;;;2.70;;
7957;SDS011;4024;52.172;5.378;2024-01-15T10:03:01;10.90;;;2.87;;
7957;SDS011;4024;52.172;5.378;2024-01-15T10:05:28;8.47;;;2.40;;
7957;SDS011;4024;52.172;5.378;2024-01-15T10:07:54;6.97;;;2.40;;
7957;SDS011;4024;52.172;5.378;2024-01-15T10:10:21;10.13;;;2.77;;
7957;SDS011;4024;52.172;5.378;2024-01-15T10:12:47;9.57;;;2.73;;
7957;SDS011;4024;52.172;5.378;2024-01-15T10:15:14;6.33;;;2.47;;
7957;SDS011;4024;52.172;5.378;2024-01-15T10:17:40;6.73;;;2.57;;
7957;SDS011;4024;52.172;5.378;2024-01-15T10:20:10;7.87;;;2.27;;
7957;SDS011;4024;52.172;5.378;2024-01-15T10:22:38;5.33;;;2.60;;
7957;SDS011;4024;52.172;5.378;2024-01-15T10:25:05;8.27;;;2.40;;
7957;SDS011;4024;52.172;5.378;2024-01-15T10:27:31;7.87;;;2.53;;
7957;SDS011;4024;52.172;5.378;2024-01-15T10:29:59;10.47;;;2.93;;
7957;SDS011;4024;52.172;5.378;2024-01-15T10:32:27;7.97;;;2.70;;
7957;SDS011;4024;52.172;5.378;2024-01-15T10:34:53;8.30;;;2.00;;
7957;SDS011;4024;52.172;5.378;2024-01-15T10:37:19;7.77;;;2.43;;
7957;SDS011;4024;52.172;5.378;2024-01-15T10:39:46;7.87;;;2.47;;
7957;SDS011;4024;52.172;5.378;2024-01-15T10:42:11;7.47;;;2.63;;
7957;SDS011;4024;52.172;5.378;2024-01-15T10:44:37;5.03;;;2.33;;
7957;SDS011;4024;52.172;5.378;2024-01-15T10:47:03;5.50;;;2.40;;
7957;SDS011;4024;52.172;5.378;2024-01-15T10:49:29;8.67;;;2.40;;
7957;SDS011;4024;52.172;5.378;2024-01-15T10:51:55;7.03;;;2.67;;
7957;SDS011;4024;52.172;5.378;2024-01-15T10:54:22;8.93;;;2.40;;
7957;SDS011;4024;52.172;5.378;2024-01-15T10:56:48;7.83;;;2.63;;
7957;SDS011;4024;52.172;5.378;2024-01-15T10:59:15;8.07;;;3.03;;
7957;SDS011;4024;52.172;5.378;2024-01-15T11:01:44;13.57;;;3.03;;
7957;SDS011;4024;52.172;5.378;2024-01-15T11:04:11;8.80;;;2.83;;
7957;SDS011;4024;52.172;5.378;2024-01-15T11:06:44;9.03;;;2.37;;
7957;SDS011;4024;52.172;5.378;2024-01-15T11:09:11;7.47;;;2.17;;
7957;SDS011;4024;52.172;5.378;2024-01-15T11:11:44;9.03;;;2.80;;
7957;SDS011;4024;52.172;5.378;2024-01-15T11:16:59;10.70;;;2.40;;
7957;SDS011;4024;52.172;5.378;2024-01-15T11:19:25;6.10;;;2.20;;
7957;SDS011;4024;52.172;5.378;2024-01-15T11:21:51;6.77;;;2.20;;
7957;SDS011;4024;52.172;5.378;2024-01-15T11:27:05;6.47;;;2.10;;
7957;SDS011;4024;52.172;5.378;2024-01-15T11:29:34;5.23;;;2.17;;
7957;SDS011;4024;52.172;5.378;2024-01-15T11:32:07;6.77;;;2.07;;
7957;SDS011;4024;52.172;5.378;2024-01-15T11:34:52;6.83;;;1.70;;
7957;SDS011;4024;52.172;5.378;2024-01-15T11:37:22;2.50;;;1.60;;
7957;SDS011;4024;52.172;5.378;2024-01-15T11:39:50;5.40;;;1.93;;
7957;SDS011;4024;52.172;5.378;2024-01-15T11:42:17;4.23;;;1.50;;
7957;SDS011;4024;52.172;5.378;2024-01-15T11:44:44;2.73;;;1.40;;
7957;SDS011;4024;52.172;5.378;2024-01-15T11:47:10;1.43;;;1.23;;
7957;SDS011;4024;52.172;5.378;2024-01-15T11:52:25;4.03;;;1.77;;
7957;SDS011;4024;52.172;5.378;2024-01-15T11:54:55;3.00;;;1.47;;
7957;SDS011;4024;52.172;5.378;2024-01-15T12:00:08;2.87;;;1.80;;
7957;SDS011;4024;52.172;5.378;2024-01-15T12:02:35;2.77;;;1.63;;
7957;SDS011;4024;52.172;5.378;2024-01-15T12:05:01;6.37;;;1.77;;
7957;SDS011;4024;52.172;5.378;2024-01-15T12:07:27;4.47;;;1.53;;
7957;SDS011;4024;52.172;5.378;2024-01-15T12:09:53;3.23;;;1.37;;
7957;SDS011;4024;52.172;5.378;2024-01-15T12:12:24;6.90;;;1.90;;
7957;SDS011;4024;52.172;5.378;2024-01-15T12:15:17;3.83;;;1.87;;
7957;SDS011;4024;52.172;5.378;2024-01-15T12:17:43;4.40;;;2.40;;
7957;SDS011;4024;52.172;5.378;2024-01-15T12:20:10;5.23;;;2.30;;
7957;SDS011;4024;52.172;5.378;2024-01-15T12:22:37;6.33;;;2.10;;
7957;SDS011;4024;52.172;5.378;2024-01-15T12:25:03;7.83;;;1.83;;
7957;SDS011;4024;52.172;5.378;2024-01-15T12:27:29;4.47;;;1.60;;
7957;SDS011;4024;52.172;5.378;2024-01-15T12:29:55;3.53;;;1.60;;
7957;SDS011;4024;52.172;5.378;2024-01-15T12:32:20;7.60;;;1.90;;
7957;SDS011;4024;52.172;5.378;2024-01-15T12:34:49;4.97;;;1.80;;
7957;SDS011;4024;52.172;5.378;2024-01-15T12:37:17;8.37;;;2.17;;
7957;SDS011;4024;52.172;5.378;2024-01-15T12:39:44;6.07;;;2.23;;
7957;SDS011;4024;52.172;5.378;2024-01-15T12:42:10;6.00;;;1.90;;
7957;SDS011;4024;52.172;5.378;2024-01-15T12:44:36;6.70;;;2.33;;
7957;SDS011;4024;52.172;5.378;2024-01-15T12:47:03;8.00;;;2.30;;
7957;SDS011;4024;52.172;5.378;2024-01-15T12:49:29;5.77;;;2.10;;
7957;SDS011;4024;52.172;5.378;2024-01-15T12:51:59;6.83;;;2.43;;
7957;SDS011;4024;52.172;5.378;2024-01-15T12:54:24;5.97;;;2.10;;
7957;SDS011;4024;52.172;5.378;2024-01-15T12:56:51;3.47;;;1.73;;
7957;SDS011;4024;52.172;5.378;2024-01-15T12:59:17;6.33;;;2.47;;
7957;SDS011;4024;52.172;5.378;2024-01-15T13:01:44;6.17;;;2.07;;
7957;SDS011;4024;52.172;5.378;2024-01-15T13:04:10;10.13;;;2.33;;
7957;SDS011;4024;52.172;5.378;2024-01-15T13:06:36;4.40;;;2.00;;
7957;SDS011;4024;52.172;5.378;2024-01-15T13:09:04;6.93;;;2.27;;
7957;SDS011;4024;52.172;5.378;2024-01-15T13:11:31;8.00;;;2.13;;
7957;SDS011;4024;52.172;5.378;2024-01-15T13:13:57;3.70;;;1.97;;
7957;SDS011;4024;52.172;5.378;2024-01-15T13:16:22;1.77;;;1.50;;
7957;SDS011;4024;52.172;5.378;2024-01-15T13:18:48;8.30;;;2.00;;
7957;SDS011;4024;52.172;5.378;2024-01-15T13:21:14;4.93;;;2.00;;
7957;SDS011;4024;52.172;5.378;2024-01-15T13:23:43;7.37;;;1.97;;
7957;SDS011;4024;52.172;5.378;2024-01-15T13:26:09;4.77;;;1.87;;
7957;SDS011;4024;52.172;5.378;2024-01-15T13:28:35;6.90;;;2.77;;
7957;SDS011;4024;52.172;5.378;2024-01-15T13:31:00;6.20;;;2.20;;
7957;SDS011;4024;52.172;5.378;2024-01-15T13:33:26;9.40;;;2.87;;
7957;SDS011;4024;52.172;5.378;2024-01-15T13:35:51;10.80;;;2.30;;
7957;SDS011;4024;52.172;5.378;2024-01-15T13:38:17;7.57;;;2.67;;
7957;SDS011;4024;52.172;5.378;2024-01-15T13:40:43;6.30;;;2.13;;
7957;SDS011;4024;52.172;5.378;2024-01-15T13:43:10;9.33;;;2.57;;
7957;SDS011;4024;52.172;5.378;2024-01-15T13:45:36;8.17;;;2.60;;
7957;SDS011;4024;52.172;5.378;2024-01-15T13:48:02;9.70;;;2.53;;
7957;SDS011;4024;52.172;5.378;2024-01-15T13:50:30;10.13;;;2.87;;
7957;SDS011;4024;52.172;5.378;2024-01-15T13:52:56;12.17;;;3.33;;
7957;SDS011;4024;52.172;5.378;2024-01-15T13:55:22;12.17;;;2.70;;
7957;SDS011;4024;52.172;5.378;2024-01-15T13:57:48;10.23;;;2.60;;
7957;SDS011;4024;52.172;5.378;2024-01-15T14:00:13;8.23;;;2.97;;
7957;SDS011;4024;52.172;5.378;2024-01-15T14:02:43;8.50;;;2.70;;
7957;SDS011;4024;52.172;5.378;2024-01-15T14:05:09;8.03;;;2.67;;
7957;SDS011;4024;52.172;5.378;2024-01-15T14:07:37;7.93;;;2.50;;
7957;SDS011;4024;52.172;5.378;2024-01-15T14:10:04;8.43;;;2.10;;
7957;SDS011;4024;52.172;5.378;2024-01-15T14:12:30;5.93;;;2.37;;
7957;SDS011;4024;52.172;5.378;2024-01-15T14:14:56;7.10;;;2.00;;
7957;SDS011;4024;52.172;5.378;2024-01-15T14:17:21;8.03;;;2.70;;
7957;SDS011;4024;52.172;5.378;2024-01-15T14:19:47;14.50;;;2.93;;
7957;SDS011;4024;52.172;5.378;2024-01-15T14:22:12;9.07;;;2.37;;
7957;SDS011;4024;52.172;5.378;2024-01-15T14:24:38;7.87;;;2.50;;
7957;SDS011;4024;52.172;5.378;2024-01-15T14:27:04;8.87;;;2.63;;
7957;SDS011;4024;52.172;5.378;2024-01-15T14:29:30;8.90;;;1.97;;
7957;SDS011;4024;52.172;5.378;2024-01-15T14:31:56;7.23;;;2.63;;
7957;SDS011;4024;52.172;5.378;2024-01-15T14:34:21;8.33;;;2.33;;
7957;SDS011;4024;52.172;5.378;2024-01-15T14:36:49;11.47;;;2.67;;
7957;SDS011;4024;52.172;5.378;2024-01-15T14:39:14;11.93;;;3.60;;
7957;SDS011;4024;52.172;5.378;2024-01-15T14:41:40;7.93;;;2.57;;
7957;SDS011;4024;52.172;5.378;2024-01-15T14:44:06;8.97;;;2.83;;
7957;SDS011;4024;52.172;5.378;2024-01-15T14:46:31;13.83;;;3.57;;
7957;SDS011;4024;52.172;5.378;2024-01-15T14:48:57;12.00;;;2.97;;
7957;SDS011;4024;52.172;5.378;2024-01-15T14:51:23;9.87;;;3.10;;
7957;SDS011;4024;52.172;5.378;2024-01-15T14:53:49;9.53;;;2.80;;
7957;SDS011;4024;52.172;5.378;2024-01-15T14:56:14;9.27;;;3.10;;
7957;SDS011;4024;52.172;5.378;2024-01-15T14:58:40;11.60;;;3.00;;
7957;SDS011;4024;52.172;5.378;2024-01-15T15:01:05;11.27;;;3.50;;
7957;SDS011;4024;52.172;5.378;2024-01-15T15:03:31;10.97;;;3.83;;
7957;SDS011;4024;52.172;5.378;2024-01-15T15:05:57;11.77;;;3.30;;
7957;SDS011;4024;52.172;5.378;2024-01-15T15:08:23;16.77;;;3.53;;
7957;SDS011;4024;52.172;5.378;2024-01-15T15:10:49;10.87;;;2.93;;
7957;SDS011;4024;52.172;5.378;2024-01-15T15:13:15;10.50;;;3.17;;
7957;SDS011;4024;52.172;5.378;2024-01-15T15:15:40;8.57;;;2.70;;
7957;SDS011;4024;52.172;5.378;2024-01-15T15:18:06;8.23;;;3.60;;